Time;durP1;ratioP1;P1;durP2;ratioP2;P2;SDS_P1;SDS_P2;PMS_P1;PMS_P2;Temp;Humidity;BMP_temperature;BMP_pressure;BME280_temperature;BME280_humidity;BME280_pressure;Samples;Min_cycle;Max_cycle;Signal;HPM_P1;HPM_P2
2022/10/04 00:01:50;;;;;;;0.20;0.20;;;9.70;99.90;;;;;;5050005;28;20060;-78
2022/10/04 00:04:18;;;;;;;0.15;0.15;;;9.70;99.90;;;;;;5050424;28;20025;-79
2022/10/04 00:06:50;;;;;;;0.20;0.20;;;9.70;99.90;;;;;;5050294;28;20480;-77
2022/10/04 00:09:22;;;;;;;0.10;0.10;;;9.70;99.90;;;;;;5033866;28;20383;-79
2022/10/04 00:11:50;;;;;;;0.20;0.20;;;9.70;99.90;;;;;;5033741;28;20040;-78
2022/10/04 00:14:24;;;;;;;3.63;1.65;;;9.80;99.90;;;;;;5033671;28;20029;-78
2022/10/04 00:16:51;;;;;;;0.10;0.10;;;9.80;99.90;;;;;;5033503;28;20029;-77
2022/10/04 00:19:36;;;;;;;0.38;0.25;;;9.80;99.90;;;;;;5050275;28;20373;-76
2022/10/04 00:22:09;;;;;;;0.13;0.13;;;9.80;99.90;;;;;;5050160;28;20109;-77
2022/10/04 00:24:36;;;;;;;0.10;0.10;;;9.90;99.90;;;;;;5049937;28;20023;-77
2022/10/04 00:27:31;;;;;;;0.10;0.10;;;9.90;99.90;;;;;;5053403;28;20388;-77
2022/10/04 00:30:03;;;;;;;0.10;0.10;;;9.90;99.90;;;;;;5053417;28;20495;-77
2022/10/04 00:32:41;;;;;;;;;;;9.80;99.90;;;;;;5054002;28;20383;-78
2022/10/04 00:35:25;;;;;;;0.20;0.20;;;9.60;99.90;;;;;;5053403;28;20260;-77
2022/10/04 00:37:58;;;;;;;0.10;0.10;;;9.40;99.90;;;;;;5053491;28;20108;-76
2022/10/04 00:40:39;;;;;;;0.28;0.28;;;9.40;99.90;;;;;;5053481;28;20072;-76
2022/10/04 00:43:28;;;;;;;0.10;0.10;;;9.40;99.90;;;;;;5054673;28;20029;-78
2022/10/04 00:46:06;;;;;;;0.20;0.20;;;9.50;99.90;;;;;;5053271;28;20071;-76
2022/10/04 00:48:38;;;;;;;0.55;0.55;;;9.40;99.90;;;;;;5036601;28;20028;-76
2022/10/04 00:51:30;;;;;;;0.47;0.47;;;9.30;99.90;;;;;;5043405;28;20033;-78
2022/10/04 00:54:09;;;;;;;0.20;0.20;;;9.20;99.90;;;;;;5045173;28;20486;-77
2022/10/04 00:57:16;;;;;;;0.20;0.20;;;9.20;99.90;;;;;;5052187;28;20122;-76
2022/10/04 00:59:51;;;;;;;0.20;0.20;;;9.00;99.90;;;;;;4976557;28;20391;-78
2022/10/04 01:02:36;;;;;;;0.20;0.20;;;8.90;99.90;;;;;;4992685;28;20033;-77
2022/10/04 01:05:12;;;;;;;0.10;0.10;;;8.90;99.90;;;;;;4997161;28;20041;-77
2022/10/04 01:08:00;;;;;;;0.73;0.73;;;8.90;99.90;;;;;;5034208;28;20025;-77
2022/10/04 01:10:30;;;;;;;0.20;0.20;;;8.80;99.90;;;;;;5025954;28;20541;-76
2022/10/04 01:13:12;;;;;;;0.10;0.10;;;8.80;99.90;;;;;;5034215;28;20018;-76
2022/10/04 01:15:43;;;;;;;0.10;0.10;;;8.90;99.90;;;;;;5016225;28;20026;-77
2022/10/04 01:18:14;;;;;;;0.20;0.20;;;8.80;99.90;;;;;;5033413;28;20109;-77
2022/10/04 01:21:02;;;;;;;0.25;0.25;;;8.80;99.90;;;;;;5034032;28;20032;-78
2022/10/04 01:23:36;;;;;;;0.13;0.13;;;9.00;99.90;;;;;;5032251;28;20485;-78
2022/10/04 01:26:30;;;;;;;0.20;0.20;;;8.90;99.90;;;;;;5032881;28;20022;-77
2022/10/04 01:29:13;;;;;;;0.10;0.10;;;9.00;99.90;;;;;;5029495;28;20037;-77
2022/10/04 01:31:48;;;;;;;;;;;8.80;99.90;;;;;;5045218;28;20282;-77
2022/10/04 01:34:18;;;;;;;0.10;0.10;;;8.50;99.90;;;;;;5052556;28;19947;-76
2022/10/04 01:36:46;;;;;;;0.20;0.20;;;8.40;99.90;;;;;;5052282;28;20029;-77
2022/10/04 01:39:16;;;;;;;0.10;0.10;;;8.40;99.90;;;;;;5052596;28;20021;-79
2022/10/04 01:41:45;;;;;;;0.10;0.10;;;8.50;99.90;;;;;;5052424;28;20499;-77
2022/10/04 01:44:26;;;;;;;0.15;0.15;;;8.60;99.90;;;;;;5053688;28;20419;-77
2022/10/04 01:46:55;;;;;;;0.10;0.10;;;8.70;99.90;;;;;;5053435;28;20017;-79
2022/10/04 01:49:26;;;;;;;0.20;0.20;;;8.60;99.90;;;;;;5052321;28;20033;-77
2022/10/04 01:52:01;;;;;;;0.10;0.10;;;8.80;99.90;;;;;;5035636;28;20503;-78
2022/10/04 01:54:41;;;;;;;0.10;0.10;;;8.80;99.90;;;;;;5035775;28;20036;-78
2022/10/04 01:57:17;;;;;;;0.10;0.10;;;8.70;99.90;;;;;;5035624;28;20462;-77
2022/10/04 02:00:00;;;;;;;0.60;0.40;;;8.80;99.90;;;;;;5052053;28;20029;-77
2022/10/04 02:02:34;;;;;;;0.10;0.10;;;8.70;99.90;;;;;;5035356;28;20535;-77
2022/10/04 02:05:04;;;;;;;0.20;0.20;;;8.70;99.90;;;;;;5051691;28;20018;-78
2022/10/04 02:07:32;;;;;;;0.13;0.13;;;8.70;99.90;;;;;;5051559;28;20508;-80
2022/10/04 02:10:03;;;;;;;0.10;0.10;;;8.70;99.90;;;;;;5053085;28;20028;-80
2022/10/04 02:12:30;;;;;;;0.10;0.10;;;8.80;99.90;;;;;;5051913;28;20028;-78
2022/10/04 02:15:00;;;;;;;0.10;0.10;;;8.90;99.90;;;;;;5051453;28;20029;-79
2022/10/04 02:17:30;;;;;;;0.10;0.10;;;8.90;99.90;;;;;;5034987;28;20025;-80
2022/10/04 02:19:57;;;;;;;0.10;0.10;;;9.00;99.90;;;;;;5051473;28;20041;-78
2022/10/04 02:22:24;;;;;;;0.10;0.10;;;8.90;99.90;;;;;;5052905;28;20021;-79
2022/10/04 02:24:54;;;;;;;0.13;0.13;;;8.90;99.90;;;;;;5051490;28;20022;-78
2022/10/04 02:27:27;;;;;;;0.10;0.10;;;9.00;99.90;;;;;;5053075;28;20021;-79
2022/10/04 02:30:04;;;;;;;0.17;0.17;;;9.00;99.90;;;;;;5051477;28;20033;-78
2022/10/04 02:35:18;;;;;;;0.10;0.10;;;9.00;99.90;;;;;;5052479;28;20045;-78
2022/10/04 02:37:51;;;;;;;0.30;0.30;;;8.90;99.90;;;;;;5052710;28;20024;-77
2022/10/04 02:40:22;;;;;;;0.10;0.10;;;8.90;99.90;;;;;;5051365;28;20025;-78
2022/10/04 02:43:02;;;;;;;0.10;0.10;;;8.90;99.90;;;;;;5051160;28;20047;-78
2022/10/04 02:45:50;;;;;;;0.52;0.52;;;8.80;99.90;;;;;;5052306;28;20021;-77
2022/10/04 02:48:32;;;;;;;0.10;0.10;;;8.90;99.90;;;;;;5052242;28;20013;-78
2022/10/04 02:51:10;;;;;;;0.10;0.10;;;8.90;99.90;;;;;;5051199;28;20431;-78
2022/10/04 02:53:48;;;;;;;0.10;0.10;;;9.00;99.90;;;;;;5052386;28;20074;-78
2022/10/04 02:56:15;;;;;;;0.10;0.10;;;9.00;99.90;;;;;;5052246;28;20100;-78
2022/10/04 02:58:41;;;;;;;0.10;0.10;;;8.90;99.90;;;;;;5052232;28;20028;-78
2022/10/04 03:01:16;;;;;;;0.10;0.10;;;8.90;99.90;;;;;;5052344;28;20021;-80
2022/10/04 03:03:46;;;;;;;0.60;0.20;;;9.10;99.90;;;;;;5050837;28;20502;-78
2022/10/04 03:06:18;;;;;;;0.10;0.10;;;9.00;99.90;;;;;;5050750;28;20037;-78
2022/10/04 03:08:58;;;;;;;0.10;0.10;;;8.90;99.90;;;;;;5050948;28;20032;-77
2022/10/04 03:11:29;;;;;;;0.95;0.95;;;8.90;99.90;;;;;;5050946;28;20036;-77
2022/10/04 03:13:58;;;;;;;0.13;0.13;;;9.00;99.90;;;;;;5052257;28;20459;-80
2022/10/04 03:16:24;;;;;;;0.10;0.10;;;8.90;99.90;;;;;;5051987;28;20533;-77
2022/10/04 03:18:55;;;;;;;0.15;0.15;;;8.80;99.90;;;;;;5050936;28;20029;-78
2022/10/04 03:21:23;;;;;;;0.10;0.10;;;8.80;99.90;;;;;;5051958;28;20021;-78
2022/10/04 03:23:50;;;;;;;0.20;0.20;;;8.70;99.90;;;;;;5050635;28;20492;-78
2022/10/04 03:26:28;;;;;;;0.10;0.10;;;8.80;99.90;;;;;;5050479;28;20032;-78
2022/10/04 03:28:56;;;;;;;0.22;0.22;;;8.80;99.90;;;;;;5051875;28;20025;-79
2022/10/04 03:31:25;;;;;;;0.10;0.10;;;8.80;99.90;;;;;;5051765;28;20176;-79
2022/10/04 03:33:54;;;;;;;0.10;0.10;;;8.90;99.90;;;;;;5051863;28;20025;-77
2022/10/04 03:36:21;;;;;;;0.10;0.10;;;9.00;99.90;;;;;;5033941;28;20094;-78
2022/10/04 03:38:51;;;;;;;0.20;0.20;;;8.90;99.90;;;;;;5051679;28;20051;-78
2022/10/04 03:41:18;;;;;;;0.10;0.10;;;8.90;99.90;;;;;;5034038;28;20119;-77
2022/10/04 03:43:46;;;;;;;0.10;0.10;;;9.00;99.90;;;;;;5050454;28;20025;-78
2022/10/04 03:46:13;;;;;;;0.10;0.10;;;9.00;99.90;;;;;;5051496;28;20017;-79
2022/10/04 03:48:42;;;;;;;0.10;0.10;;;8.90;99.90;;;;;;5033885;28;20109;-76
2022/10/04 03:51:15;;;;;;;0.20;0.20;;;8.80;99.90;;;;;;5050237;28;20339;-80
2022/10/04 03:53:44;;;;;;;0.20;0.20;;;8.70;99.90;;;;;;5033748;28;20115;-78
2022/10/04 03:56:27;;;;;;;0.15;0.15;;;8.70;99.90;;;;;;5050150;28;20029;-78
2022/10/04 03:58:54;;;;;;;0.10;0.10;;;8.80;99.90;;;;;;5050175;28;20029;-77
2022/10/04 04:01:40;;;;;;;0.10;0.10;;;8.60;99.90;;;;;;5051400;28;20055;-76
2022/10/04 04:04:05;;;;;;;0.10;0.10;;;8.60;99.90;;;;;;5054075;28;20068;-77
2022/10/04 04:06:42;;;;;;;0.20;0.20;;;8.40;99.90;;;;;;5055132;28;20056;-76
2022/10/04 04:09:19;;;;;;;0.20;0.20;;;8.20;99.90;;;;;;5037139;28;20122;-76
2022/10/04 04:11:48;;;;;;;0.13;0.13;;;7.90;99.90;;;;;;5053964;28;20025;-78
2022/10/04 04:14:22;;;;;;;0.10;0.10;;;7.70;99.90;;;;;;5055076;28;20075;-76
2022/10/04 04:16:48;;;;;;;0.20;0.20;;;7.50;99.90;;;;;;5055097;28;20027;-77
2022/10/04 04:19:17;;;;;;;0.10;0.10;;;7.50;99.90;;;;;;5053564;28;20033;-76
2022/10/04 04:21:44;;;;;;;0.10;0.10;;;7.90;99.90;;;;;;5050808;28;20017;-78
2022/10/04 04:24:30;;;;;;;0.90;0.75;;;7.90;99.90;;;;;;5046677;28;20390;-78
2022/10/04 04:27:04;;;;;;;0.63;0.43;;;7.90;99.90;;;;;;5035194;28;20116;-76
2022/10/04 04:29:37;;;;;;;0.13;0.13;;;8.00;99.90;;;;;;5038196;28;20014;-78
2022/10/04 04:32:27;;;;;;;1.00;0.50;;;8.00;99.90;;;;;;5054907;28;20020;-77
2022/10/04 04:34:57;;;;;;;0.30;0.30;;;7.90;99.90;;;;;;5053538;28;20029;-79
2022/10/04 04:37:23;;;;;;;0.20;0.20;;;7.90;99.90;;;;;;5037047;28;20035;-78
2022/10/04 04:39:53;;;;;;;0.13;0.13;;;8.00;99.90;;;;;;5034165;28;20103;-77
2022/10/04 04:42:33;;;;;;;0.10;0.10;;;8.00;99.90;;;;;;5034581;28;20366;-78
2022/10/04 04:45:21;;;;;;;0.20;0.20;;;8.20;99.90;;;;;;5016563;28;20108;-78
2022/10/04 04:47:51;;;;;;;0.10;0.10;;;8.30;99.90;;;;;;5016994;28;20021;-78
2022/10/04 04:50:21;;;;;;;0.20;0.20;;;8.50;99.90;;;;;;5034921;28;20032;-78
2022/10/04 04:52:52;;;;;;;0.32;0.32;;;8.40;99.90;;;;;;5034812;28;20036;-78
2022/10/04 04:55:21;;;;;;;0.40;0.40;;;8.40;99.90;;;;;;5034364;28;20389;-78
2022/10/04 04:57:50;;;;;;;0.10;0.10;;;8.20;99.90;;;;;;5043581;28;20469;-79
2022/10/04 05:00:26;;;;;;;0.73;0.73;;;8.10;99.90;;;;;;5035623;28;20374;-79
2022/10/04 05:02:54;;;;;;;0.20;0.20;;;8.20;99.90;;;;;;5031480;28;20025;-79
2022/10/04 05:05:27;;;;;;;0.20;0.20;;;8.30;99.90;;;;;;5049149;28;20358;-78
2022/10/04 05:08:26;;;;;;;0.10;0.10;;;8.40;99.90;;;;;;5018955;28;20021;-77
2022/10/04 05:11:07;;;;;;;0.17;0.17;;;8.40;99.90;;;;;;5037467;28;20033;-77
2022/10/04 05:13:33;;;;;;;0.10;0.10;;;8.40;99.90;;;;;;5032491;28;20489;-77
2022/10/04 05:16:00;;;;;;;0.10;0.10;;;8.40;99.90;;;;;;5049440;28;20097;-78
2022/10/04 05:18:32;;;;;;;0.10;0.10;;;8.40;99.90;;;;;;5034080;28;20021;-79
2022/10/04 05:21:10;;;;;;;0.10;0.10;;;8.30;99.90;;;;;;5032597;28;20316;-78
2022/10/04 05:23:36;;;;;;;0.20;0.20;;;8.30;99.90;;;;;;5034187;28;20500;-78
2022/10/04 05:26:03;;;;;;;0.10;0.10;;;8.20;99.90;;;;;;5033981;28;20112;-78
2022/10/04 05:28:30;;;;;;;0.73;0.73;;;8.10;99.90;;;;;;5032752;28;20032;-78
2022/10/04 05:31:04;;;;;;;0.20;0.20;;;8.20;99.90;;;;;;5049317;28;20033;-78
2022/10/04 05:33:50;;;;;;;0.20;0.20;;;8.20;99.90;;;;;;5040339;28;20018;-79
2022/10/04 05:36:32;;;;;;;0.10;0.10;;;8.30;99.90;;;;;;5055073;28;20432;-77
2022/10/04 05:39:18;;;;;;;0.40;0.40;;;8.20;99.90;;;;;;5035267;28;20021;-78
2022/10/04 05:42:11;;;;;;;0.30;0.30;;;8.20;99.90;;;;;;5043185;28;20036;-78
2022/10/04 05:44:56;;;;;;;0.10;0.10;;;8.50;99.90;;;;;;5043704;28;20026;-77
2022/10/04 05:47:27;;;;;;;0.20;0.20;;;8.20;99.90;;;;;;5047373;28;20411;-79
2022/10/04 05:49:55;;;;;;;0.30;0.30;;;8.10;99.90;;;;;;5052307;28;20036;-79
2022/10/04 05:52:24;;;;;;;0.20;0.20;;;8.20;99.90;;;;;;5036575;28;20052;-77
2022/10/04 05:55:14;;;;;;;0.10;0.10;;;8.40;99.90;;;;;;5055217;28;20082;-79
2022/10/04 05:57:58;;;;;;;0.10;0.10;;;8.20;99.90;;;;;;5052587;28;20484;-79
2022/10/04 06:00:50;;;;;;;0.10;0.10;;;8.40;99.90;;;;;;5052012;28;20025;-77
2022/10/04 06:03:35;;;;;;;;;;;8.40;99.90;;;;;;5049807;28;20029;-78
2022/10/04 06:06:14;;;;;;;0.10;0.10;;;8.30;99.90;;;;;;5052428;28;20364;-79
2022/10/04 06:08:55;;;;;;;0.32;0.32;;;8.40;99.90;;;;;;5034339;28;20380;-77
2022/10/04 06:11:25;;;;;;;0.10;0.10;;;8.40;99.90;;;;;;5051454;28;20416;-80
2022/10/04 06:14:02;;;;;;;0.10;0.10;;;8.50;99.90;;;;;;5051099;28;20104;-80
2022/10/04 06:16:56;;;;;;;1.52;1.45;;;8.60;99.90;;;;;;5034419;28;20018;-78
2022/10/04 06:19:28;;;;;;;0.10;0.10;;;9.00;99.90;;;;;;5033555;28;20503;-77
2022/10/04 06:22:08;;;;;;;0.30;0.30;;;8.80;99.90;;;;;;5015941;28;20064;-78
2022/10/04 06:24:38;;;;;;;0.20;0.20;;;8.80;99.90;;;;;;5031386;28;20028;-77
2022/10/04 06:27:34;;;;;;;0.10;0.10;;;8.90;99.90;;;;;;5015688;28;20028;-77
2022/10/04 06:30:06;;;;;;;0.20;0.20;;;9.00;99.90;;;;;;5011494;28;20037;-78
2022/10/04 06:32:33;;;;;;;0.10;0.10;;;9.30;99.90;;;;;;5040758;28;20464;-79
2022/10/04 06:35:37;;;;;;;0.10;0.10;;;9.50;99.90;;;;;;5034399;28;20037;-79
2022/10/04 06:38:22;;;;;;;0.20;0.20;;;9.80;99.90;;;;;;5033451;28;20032;-78
2022/10/04 06:41:36;;;;;;;0.10;0.10;;;9.90;99.90;;;;;;5032369;28;20389;-78
2022/10/04 06:44:27;;;;;;;0.10;0.10;;;9.90;99.90;;;;;;5011502;28;20064;-77
2022/10/04 06:46:59;;;;;;;1.85;0.82;;;9.90;99.90;;;;;;5048227;28;20031;-79
2022/10/04 06:49:44;;;;;;;0.20;0.20;;;9.90;99.90;;;;;;5034932;28;20131;-78
2022/10/04 06:52:54;;;;;;;0.17;0.17;;;9.80;99.90;;;;;;5051720;28;20461;-78
2022/10/04 06:56:07;;;;;;;0.10;0.10;;;9.70;99.90;;;;;;5053755;28;20025;-80
2022/10/04 06:58:45;;;;;;;0.15;0.15;;;9.80;99.90;;;;;;5010620;28;20018;-78
2022/10/04 07:01:30;;;;;;;0.10;0.10;;;9.90;99.90;;;;;;5050035;28;20116;-78
2022/10/04 07:04:10;;;;;;;0.10;0.10;;;9.90;99.90;;;;;;5052356;28;20033;-79
2022/10/04 07:06:49;;;;;;;0.10;0.10;;;10.00;99.90;;;;;;5035572;28;20477;-78
2022/10/04 07:09:23;;;;;;;0.10;0.10;;;10.10;99.90;;;;;;5031813;28;20382;-79
2022/10/04 07:12:06;;;;;;;0.35;0.35;;;10.30;99.90;;;;;;5031819;28;20029;-79
2022/10/04 07:14:37;;;;;;;0.50;0.50;;;10.30;99.90;;;;;;5034124;28;20049;-79
2022/10/04 07:17:12;;;;;;;0.90;0.90;;;10.30;99.90;;;;;;5049680;28;20033;-78
2022/10/04 07:19:51;;;;;;;0.13;0.13;;;10.40;99.90;;;;;;5048908;28;20033;-78
2022/10/04 07:22:21;;;;;;;0.20;0.20;;;10.50;99.90;;;;;;5016329;28;20088;-79
2022/10/04 07:24:58;;;;;;;0.57;0.57;;;10.70;99.90;;;;;;5033947;28;20109;-78
2022/10/04 07:27:32;;;;;;;0.10;0.10;;;10.80;99.90;;;;;;5051501;28;20032;-79
2022/10/04 07:30:04;;;;;;;0.20;0.20;;;11.00;99.90;;;;;;5052557;28;20773;-78
2022/10/04 07:32:35;;;;;;;0.10;0.10;;;11.10;99.90;;;;;;5053104;28;20095;-80
2022/10/04 07:35:11;;;;;;;0.30;0.30;;;11.30;99.90;;;;;;5055157;28;20508;-79
2022/10/04 07:37:51;;;;;;;0.10;0.10;;;11.20;99.90;;;;;;5040458;28;20052;-79
2022/10/04 07:40:37;;;;;;;0.10;0.10;;;11.40;99.90;;;;;;5039105;28;20102;-79
2022/10/04 07:43:05;;;;;;;0.20;0.20;;;11.60;99.90;;;;;;5038542;28;20040;-78
2022/10/04 07:45:33;;;;;;;0.10;0.10;;;11.50;99.90;;;;;;5037544;28;20492;-79
2022/10/04 07:48:08;;;;;;;0.10;0.10;;;11.50;99.90;;;;;;5019804;28;20109;-78
2022/10/04 07:50:57;;;;;;;0.20;0.20;;;11.60;99.90;;;;;;5036871;28;20104;-78
2022/10/04 07:53:32;;;;;;;0.10;0.10;;;11.70;99.90;;;;;;5025318;28;20056;-78
2022/10/04 07:56:37;;;;;;;0.10;0.10;;;11.60;99.90;;;;;;5018299;28;20026;-78
2022/10/04 07:59:31;;;;;;;0.20;0.20;;;11.90;99.90;;;;;;5015548;28;20436;-79
2022/10/04 08:02:15;;;;;;;0.73;0.73;;;12.10;99.90;;;;;;5035878;28;20480;-78
2022/10/04 08:05:05;;;;;;;0.10;0.10;;;12.20;99.90;;;;;;5040385;28;20041;-79
2022/10/04 08:08:04;;;;;;;0.10;0.10;;;12.30;99.90;;;;;;5047224;28;20183;-79
2022/10/04 08:10:45;;;;;;;0.10;0.10;;;12.40;99.90;;;;;;4993181;28;20030;-79
2022/10/04 08:13:49;;;;;;;0.20;0.20;;;12.30;99.90;;;;;;5039303;28;20124;-81
2022/10/04 08:16:42;;;;;;;0.10;0.10;;;12.50;99.90;;;;;;5020451;28;20136;-78
2022/10/04 08:19:44;;;;;;;0.10;0.10;;;12.70;99.90;;;;;;5037374;28;20025;-79
2022/10/04 08:22:25;;;;;;;0.25;0.25;;;12.80;99.90;;;;;;5039564;28;20033;-79
2022/10/04 08:25:09;;;;;;;0.10;0.10;;;12.90;99.90;;;;;;5055806;28;20029;-78
2022/10/04 08:30:47;;;;;;;0.10;0.10;;;13.00;99.90;;;;;;5047188;28;20080;-79
2022/10/04 08:33:37;;;;;;;0.13;0.13;;;13.10;99.90;;;;;;5044144;28;20025;-78
2022/10/04 08:36:25;;;;;;;0.10;0.10;;;13.20;99.90;;;;;;5048068;28;20036;-78
2022/10/04 08:38:57;;;;;;;0.17;0.17;;;13.40;99.90;;;;;;5045721;28;20025;-78
2022/10/04 08:41:41;;;;;;;;;;;13.20;99.90;;;;;;5044971;28;20024;-79
2022/10/04 08:44:13;;;;;;;0.13;0.13;;;13.20;99.90;;;;;;5034152;28;19905;-78
2022/10/04 08:46:54;;;;;;;;;;;13.20;99.90;;;;;;5034777;28;20515;-78
2022/10/04 08:49:36;;;;;;;0.10;0.10;;;13.30;99.90;;;;;;5034288;28;20006;-80
2022/10/04 08:52:29;;;;;;;0.10;0.10;;;13.50;99.90;;;;;;5033983;28;20405;-80
2022/10/04 08:55:01;;;;;;;1.13;0.70;;;13.60;99.90;;;;;;5049791;28;20029;-78
2022/10/04 08:57:54;;;;;;;0.10;0.10;;;13.80;99.90;;;;;;5054464;28;20025;-78
2022/10/04 09:00:26;;;;;;;0.10;0.10;;;13.90;99.90;;;;;;5053586;28;20564;-78
2022/10/04 09:02:52;;;;;;;0.65;0.20;;;14.10;99.90;;;;;;5053496;28;20075;-79
2022/10/04 09:05:21;;;;;;;0.10;0.10;;;14.10;99.90;;;;;;5039116;28;20014;-78
2022/10/04 09:08:14;;;;;;;0.10;0.10;;;14.20;99.90;;;;;;5033942;28;20029;-78
2022/10/04 09:10:46;;;;;;;0.82;0.82;;;14.40;99.90;;;;;;5033797;28;20484;-79
2022/10/04 09:13:57;;;;;;;0.10;0.10;;;14.70;99.90;;;;;;5033616;28;20029;-77
2022/10/04 09:16:27;;;;;;;0.10;0.10;;;14.90;99.90;;;;;;5032284;28;20044;-79
2022/10/04 09:19:02;;;;;;;0.10;0.10;;;15.10;99.90;;;;;;5049803;28;20028;-79
2022/10/04 09:21:33;;;;;;;0.10;0.10;;;15.20;99.90;;;;;;5034262;28;20112;-79
2022/10/04 09:24:23;;;;;;;0.10;0.10;;;15.40;99.90;;;;;;5050285;28;20032;-79
2022/10/04 09:27:42;;;;;;;0.10;0.10;;;15.50;99.90;;;;;;5035173;28;20026;-79
2022/10/04 09:30:24;;;;;;;0.15;0.15;;;15.80;99.90;;;;;;5036183;28;20060;-78
2022/10/04 09:33:17;;;;;;;0.10;0.10;;;15.90;99.90;;;;;;5043064;28;20099;-78
2022/10/04 09:36:01;;;;;;;0.17;0.13;;;15.80;99.90;;;;;;5053193;28;20033;-77
2022/10/04 09:38:55;;;;;;;0.32;0.32;;;16.00;99.90;;;;;;5025342;28;20040;-78
2022/10/04 09:41:31;;;;;;;0.10;0.10;;;16.40;99.90;;;;;;5033451;28;20029;-80
2022/10/04 09:44:23;;;;;;;0.10;0.10;;;16.40;99.90;;;;;;5032735;28;20037;-79
2022/10/04 09:46:54;;;;;;;;;;;16.50;99.90;;;;;;5032156;28;20064;-78
2022/10/04 09:49:38;;;;;;;0.10;0.10;;;16.40;99.90;;;;;;5034183;28;19949;-78
2022/10/04 09:52:14;;;;;;;0.20;0.20;;;16.40;99.90;;;;;;5035404;28;20541;-81
2022/10/04 09:54:55;;;;;;;0.10;0.10;;;15.90;99.90;;;;;;5054717;28;20079;-79
2022/10/04 09:58:11;;;;;;;0.10;0.10;;;16.10;99.90;;;;;;5059703;28;20021;-79
2022/10/04 10:01:01;;;;;;;1.55;1.45;;;16.40;99.90;;;;;;5049514;28;20108;-78
2022/10/04 10:03:46;;;;;;;0.17;0.17;;;16.50;99.90;;;;;;5053235;28;20048;-79
2022/10/04 10:06:33;;;;;;;0.10;0.10;;;16.50;99.90;;;;;;5019229;28;20025;-79
2022/10/04 10:15:38;;;;;;;0.20;0.20;;;16.60;99.90;;;;;;5056485;28;20135;-78
2022/10/04 10:18:35;;;;;;;0.10;0.10;;;16.80;99.90;;;;;;5055955;28;20018;-77
2022/10/04 10:21:28;;;;;;;0.43;0.43;;;16.90;99.90;;;;;;5055066;28;20384;-80
2022/10/04 10:24:03;;;;;;;0.10;0.10;;;16.70;99.90;;;;;;5059182;28;20469;-80
2022/10/04 10:26:29;;;;;;;2.05;1.85;;;16.80;99.90;;;;;;5037848;28;20017;-77
2022/10/04 10:29:04;;;;;;;0.10;0.10;;;16.70;99.90;;;;;;5051868;28;20435;-80
2022/10/04 10:32:01;;;;;;;0.10;0.10;;;16.70;99.90;;;;;;5034945;28;20113;-79
2022/10/04 10:35:04;;;;;;;0.35;0.35;;;16.70;99.90;;;;;;5014742;28;20053;-77
2022/10/04 10:37:39;;;;;;;0.20;0.20;;;16.70;99.90;;;;;;5034041;28;20504;-79
2022/10/04 10:40:27;;;;;;;0.10;0.10;;;16.70;99.90;;;;;;5040103;28;20033;-78
2022/10/04 10:43:06;;;;;;;0.50;0.50;;;16.60;99.90;;;;;;5042191;28;20028;-78
2022/10/04 10:45:50;;;;;;;0.25;0.25;;;16.30;99.90;;;;;;5047070;28;20051;-78
2022/10/04 10:48:52;;;;;;;0.10;0.10;;;16.10;99.90;;;;;;5055650;28;20079;-79
2022/10/04 10:51:48;;;;;;;0.10;0.10;;;16.00;99.90;;;;;;5041034;28;20079;-77
2022/10/04 10:54:53;;;;;;;0.00;0.00;;;16.20;99.90;;;;;;5052012;28;20361;-79
2022/10/04 10:57:55;;;;;;;0.20;0.20;;;16.30;99.90;;;;;;4998405;28;20389;-80
2022/10/04 11:00:25;;;;;;;0.00;0.00;;;16.20;99.90;;;;;;5010386;28;20072;-80
2022/10/04 11:03:16;;;;;;;0.20;0.20;;;16.20;99.90;;;;;;5029579;28;20532;-79
2022/10/04 11:05:57;;;;;;;0.10;0.10;;;16.30;99.90;;;;;;5049970;28;20047;-80
2022/10/04 11:08:47;;;;;;;0.10;0.10;;;16.30;99.90;;;;;;5042527;28;20088;-78
2022/10/04 11:11:40;;;;;;;0.20;0.20;;;16.30;99.90;;;;;;5040543;28;20044;-76
2022/10/04 11:14:46;;;;;;;0.20;0.20;;;16.20;99.90;;;;;;5030400;28;20098;-78
2022/10/04 11:17:26;;;;;;;0.08;0.08;;;16.10;99.90;;;;;;5051686;28;20093;-79
2022/10/04 11:20:23;;;;;;;0.10;0.10;;;16.20;99.90;;;;;;5030387;28;20032;-78
2022/10/04 11:23:28;;;;;;;0.10;0.10;;;16.40;99.90;;;;;;5049433;28;20076;-78
2022/10/04 11:26:28;;;;;;;0.00;0.00;;;16.60;99.90;;;;;;5031684;28;20110;-77
2022/10/04 11:29:02;;;;;;;0.10;0.10;;;16.70;99.90;;;;;;5036668;28;20021;-77
2022/10/04 11:31:56;;;;;;;1.98;1.38;;;16.90;99.90;;;;;;5046958;28;20025;-78
2022/10/04 11:34:40;;;;;;;0.10;0.10;;;17.60;99.90;;;;;;5038027;28;20104;-77
2022/10/04 11:37:40;;;;;;;0.63;0.63;;;18.20;99.90;;;;;;5050769;28;20036;-78
2022/10/04 11:40:32;;;;;;;0.35;0.35;;;18.30;99.90;;;;;;5051529;28;20033;-79
2022/10/04 11:43:18;;;;;;;;;;;18.10;99.90;;;;;;5043160;28;20026;-78
2022/10/04 11:46:03;;;;;;;0.05;0.05;;;18.20;99.90;;;;;;5035651;28;19909;-76
2022/10/04 11:49:10;;;;;;;0.20;0.20;;;17.60;99.90;;;;;;5030477;28;20477;-78
2022/10/04 11:51:51;;;;;;;0.10;0.10;;;17.60;99.90;;;;;;5047214;28;20388;-78
2022/10/04 11:54:46;;;;;;;0.10;0.10;;;17.70;99.90;;;;;;5051991;28;20023;-77
2022/10/04 11:57:52;;;;;;;0.85;0.77;;;17.80;99.90;;;;;;5034110;28;20158;-78
2022/10/04 12:00:21;;;;;;;1.65;0.40;;;17.70;99.90;;;;;;5042331;28;20515;-79
2022/10/04 12:02:56;;;;;;;0.65;0.63;;;17.90;99.90;;;;;;5042216;28;20013;-78
2022/10/04 12:05:49;;;;;;;0.10;0.10;;;18.40;99.90;;;;;;5029660;28;20068;-75
2022/10/04 12:08:30;;;;;;;0.10;0.10;;;18.50;99.90;;;;;;5030965;28;20075;-76
2022/10/04 12:11:11;;;;;;;6.22;1.23;;;18.60;99.90;;;;;;5029875;28;20025;-74
2022/10/04 12:13:41;;;;;;;0.10;0.10;;;18.60;99.90;;;;;;5029824;28;20477;-74
2022/10/04 12:16:33;;;;;;;0.50;0.50;;;18.70;99.90;;;;;;5030587;28;20034;-74
2022/10/04 12:19:31;;;;;;;0.10;0.10;;;19.20;99.90;;;;;;5038403;28;20022;-74
2022/10/04 12:22:30;;;;;;;0.10;0.10;;;19.50;99.20;;;;;;5024125;28;20046;-74
2022/10/04 12:25:26;;;;;;;0.30;0.20;;;19.60;98.40;;;;;;5016805;28;20570;-73
2022/10/04 12:28:11;;;;;;;0.10;0.10;;;18.90;99.30;;;;;;5034426;28;20033;-74
2022/10/04 12:30:58;;;;;;;3.05;1.30;;;18.30;99.90;;;;;;5033225;28;20040;-74
2022/10/04 12:33:44;;;;;;;0.10;0.10;;;18.20;99.90;;;;;;5036237;28;20028;-74
2022/10/04 12:36:19;;;;;;;0.00;0.00;;;18.10;99.90;;;;;;5021804;28;20051;-74
2022/10/04 12:39:06;;;;;;;0.00;0.00;;;18.20;99.90;;;;;;5052826;28;20041;-74
2022/10/04 12:42:11;;;;;;;0.20;0.20;;;18.30;99.90;;;;;;5054214;28;20116;-74
2022/10/04 12:44:45;;;;;;;0.20;0.20;;;18.50;99.90;;;;;;5053973;28;20032;-74
2022/10/04 12:47:17;;;;;;;0.90;0.90;;;18.60;99.90;;;;;;5052341;28;20025;-74
2022/10/04 12:49:46;;;;;;;;;;;18.80;99.90;;;;;;5044762;28;20108;-73
2022/10/04 12:52:17;;;;;;;0.10;0.10;;;19.00;99.50;;;;;;5036432;28;20443;-73
2022/10/04 12:54:48;;;;;;;0.10;0.10;;;19.00;99.70;;;;;;5038746;28;20033;-74
2022/10/04 12:57:40;;;;;;;0.05;0.05;;;19.00;99.10;;;;;;5033536;28;20045;-74
2022/10/04 13:00:13;;;;;;;;;;;18.80;99.70;;;;;;5032612;28;20033;-73
2022/10/04 13:02:57;;;;;;;1.33;0.88;;;19.10;99.00;;;;;;5042100;28;20490;-74
2022/10/04 13:05:42;;;;;;;0.50;0.40;;;19.10;97.30;;;;;;5053215;28;20028;-74
2022/10/04 13:08:19;;;;;;;0.00;0.00;;;18.70;98.20;;;;;;5053367;28;20476;-74
2022/10/04 13:11:15;;;;;;;0.00;0.00;;;18.80;98.30;;;;;;5039261;28;20303;-74
2022/10/04 13:14:16;;;;;;;0.50;0.50;;;18.50;97.70;;;;;;5033303;28;20029;-74
2022/10/04 13:16:55;;;;;;;0.65;0.50;;;18.30;98.40;;;;;;5033347;28;20041;-74
2022/10/04 13:20:00;;;;;;;0.05;0.05;;;18.30;97.90;;;;;;5052546;28;20029;-74
2022/10/04 13:22:41;;;;;;;0.10;0.10;;;18.40;99.00;;;;;;5035910;28;20030;-74
2022/10/04 13:25:24;;;;;;;1.10;0.80;;;18.40;98.70;;;;;;5051479;28;20082;-74
2022/10/04 13:27:59;;;;;;;0.10;0.10;;;18.40;98.30;;;;;;5051505;28;20035;-74
2022/10/04 13:30:50;;;;;;;0.13;0.13;;;18.10;99.00;;;;;;5051586;28;20048;-74
2022/10/04 13:33:32;;;;;;;0.10;0.10;;;18.00;99.40;;;;;;5016689;28;20056;-74
2022/10/04 13:36:03;;;;;;;0.10;0.10;;;18.10;99.30;;;;;;5038509;28;20419;-74
2022/10/04 13:38:35;;;;;;;0.98;0.90;;;18.10;99.10;;;;;;5040559;28;20013;-74
2022/10/04 13:41:21;;;;;;;0.20;0.20;;;18.00;99.00;;;;;;5031631;28;20128;-74
2022/10/04 13:44:09;;;;;;;0.10;0.10;;;18.00;99.70;;;;;;5025282;28;20068;-74
2022/10/04 13:47:12;;;;;;;0.10;0.10;;;18.00;99.90;;;;;;5032685;28;20028;-74
2022/10/04 13:49:47;;;;;;;0.00;0.00;;;17.80;99.90;;;;;;5032667;28;20087;-74
2022/10/04 13:58:37;;;;;;;0.10;0.10;;;17.50;99.90;;;;;;5051038;28;20029;-74
2022/10/04 14:01:24;;;;;;;5.05;0.68;;;17.50;99.90;;;;;;5051399;28;20397;-76
2022/10/04 14:04:27;;;;;;;0.15;0.15;;;17.40;99.90;;;;;;5052916;28;20464;-74
2022/10/04 14:07:28;;;;;;;0.57;0.57;;;17.20;99.90;;;;;;5045690;28;20045;-74
2022/10/04 14:10:01;;;;;;;0.35;0.35;;;17.20;99.90;;;;;;5032438;28;20084;-74
2022/10/04 14:12:47;;;;;;;1.75;0.98;;;17.10;99.90;;;;;;5042806;28;20052;-74
2022/10/04 14:15:52;;;;;;;0.10;0.10;;;16.90;99.90;;;;;;5051603;28;20032;-74
2022/10/04 14:19:02;;;;;;;0.68;0.68;;;16.80;99.90;;;;;;5029832;28;20562;-74
2022/10/04 14:21:40;;;;;;;0.10;0.10;;;16.90;99.90;;;;;;5034214;28;20048;-74
2022/10/04 14:24:11;;;;;;;0.77;0.75;;;16.80;99.90;;;;;;5052033;28;20025;-73